Pelzer, South Carolina
Current Conditions -  °F | °C
As of 3:55 AM on Saturday 22 Nov 2014 (Local Time) from KGYH Reporting Station
Clear Clear  
Wind Chill: 29°   Ceiling: Unl
Heat Index: 34°   Visibility: 10mi
Dew Point: 12°   Wind: 6mph
Humidity: 41%   Direction: 50°NE
Pressure: 30.51"   Gusts: NA
Location:  34.64°N, 82.46°W
Report Text: KGYH 220855Z AUTO 05005KT 10SM CLR 01/M11 A3051 RMK AO2
Loading
Personal Weather Stations






























Interactive Weather Map New forecast layout! Learn more

10-Day Weather Forecast

Advertisements
Track Severe Weather on mobile